Claire City, South Dakota
Current Conditions -  °F | °C
As of 10:36 AM on Friday 21 Nov 2014 (Local Time) from KETH Reporting Station
Clear Clear  
Wind Chill:   Ceiling: Unl
Heat Index: 21°   Visibility: 10mi
Dew Point: 18°   Wind: 13mph
Humidity: 86%   Direction: 140°SE
Pressure: 29.93"   Gusts: NA
Location:  45.86°N, 97.1°W
Report Text: KETH 211636Z AUTO 14011KT 10SM CLR M06/M08 A2993 RMK AO2
Loading
Personal Weather Stations






























Interactive Weather Map New forecast layout! Learn more

10-Day Weather Forecast

Advertisements
Track Severe Weather on mobile